createdAt,value
2017-10-22T00:01:26.447Z,15.40
2017-10-22T00:04:00.990Z,15.20
2017-10-22T00:06:29.314Z,15.40
2017-10-22T00:08:57.912Z,15.40
2017-10-22T00:11:27.052Z,15.20
2017-10-22T00:13:57.873Z,15.40
2017-10-22T00:16:26.340Z,15.10
2017-10-22T00:18:55.272Z,15.50
2017-10-22T00:21:26.134Z,15.10
2017-10-22T00:23:54.857Z,15.30
2017-10-22T00:26:23.727Z,15.40
2017-10-22T00:28:53.224Z,15.30
2017-10-22T00:31:23.126Z,15.40
2017-10-22T00:33:51.743Z,15.30
2017-10-22T00:36:20.063Z,15.20
2017-10-22T00:38:48.351Z,15.20
2017-10-22T00:41:16.782Z,15.40
2017-10-22T00:43:45.374Z,15.10
2017-10-22T00:46:13.667Z,15.10
2017-10-22T00:48:42.715Z,15.10
2017-10-22T00:51:11.068Z,15.20
2017-10-22T00:53:39.299Z,15.10
2017-10-22T00:56:08.477Z,15.10
2017-10-22T00:58:36.791Z,15.20
2017-10-22T01:01:05.075Z,14.80
2017-10-22T01:03:33.339Z,15.10
2017-10-22T01:06:02.451Z,15.00
2017-10-22T01:08:30.719Z,14.60
2017-10-22T01:11:00.499Z,14.80
2017-10-22T01:13:29.771Z,15.00
2017-10-22T01:15:58.084Z,14.70
2017-10-22T01:18:26.495Z,14.70
2017-10-22T01:20:54.817Z,14.90
2017-10-22T01:23:23.214Z,14.70
2017-10-22T01:25:51.492Z,14.70
2017-10-22T01:28:19.826Z,14.90
2017-10-22T01:30:48.174Z,14.80
2017-10-22T01:33:18.010Z,14.60
2017-10-22T01:35:47.067Z,14.70
2017-10-22T01:38:15.348Z,14.60
2017-10-22T01:40:43.610Z,14.60
2017-10-22T01:43:12.036Z,14.60
2017-10-22T01:45:41.225Z,14.30
2017-10-22T01:48:10.357Z,14.70
2017-10-22T01:50:38.619Z,14.70
2017-10-22T01:53:06.913Z,14.20
2017-10-22T01:55:35.222Z,14.70
2017-10-22T01:58:04.095Z,14.50
2017-10-22T02:00:32.383Z,14.70
2017-10-22T02:03:01.659Z,14.60
2017-10-22T02:05:29.933Z,14.40
2017-10-22T02:07:58.301Z,14.40
2017-10-22T02:10:27.308Z,14.40
2017-10-22T02:12:55.598Z,14.30
2017-10-22T02:15:23.918Z,14.40
2017-10-22T02:17:52.195Z,14.50
2017-10-22T02:20:21.954Z,14.20
2017-10-22T02:22:50.241Z,14.30
2017-10-22T02:25:18.516Z,14.30
2017-10-22T02:27:46.795Z,13.90
2017-10-22T02:30:15.060Z,14.30
2017-10-22T02:32:44.099Z,14.10
2017-10-22T02:35:14.068Z,14.00
2017-10-22T02:37:42.323Z,14.20
2017-10-22T02:40:11.377Z,14.10
2017-10-22T02:42:40.475Z,14.10
2017-10-22T02:45:08.876Z,14.20
2017-10-22T02:47:38.639Z,14.20
2017-10-22T02:50:07.053Z,14.20
2017-10-22T02:52:35.285Z,14.10
2017-10-22T02:55:03.547Z,14.30
2017-10-22T02:57:31.837Z,14.30
2017-10-22T03:00:00.119Z,14.10
2017-10-22T03:02:28.447Z,13.90
2017-10-22T03:04:56.702Z,14.20
2017-10-22T03:07:25.011Z,14.10
2017-10-22T03:09:54.027Z,14.20
2017-10-22T03:12:22.336Z,14.00
2017-10-22T03:14:50.604Z,14.00
2017-10-22T03:17:18.869Z,14.30
2017-10-22T03:19:47.147Z,14.00
2017-10-22T03:22:15.918Z,14.00
2017-10-22T03:24:44.223Z,14.20
2017-10-22T03:27:13.374Z,14.20
2017-10-22T03:29:41.668Z,14.40
2017-10-22T03:32:10.079Z,13.90
2017-10-22T03:34:38.324Z,14.20
2017-10-22T03:37:06.621Z,14.20
2017-10-22T03:39:35.671Z,14.00
2017-10-22T03:42:04.736Z,14.00
2017-10-22T03:44:33.803Z,14.30
2017-10-22T03:47:02.140Z,14.30
2017-10-22T03:49:31.180Z,14.10
2017-10-22T03:51:59.411Z,14.10
2017-10-22T03:54:28.527Z,14.20
2017-10-22T03:56:56.788Z,14.40
2017-10-22T03:59:26.662Z,14.20
2017-10-22T04:01:54.915Z,14.20
2017-10-22T04:04:23.167Z,14.20
2017-10-22T04:06:53.541Z,14.20
2017-10-22T04:09:21.788Z,14.30
2017-10-22T04:11:50.100Z,14.20
2017-10-22T04:14:18.395Z,14.00
2017-10-22T04:16:46.665Z,14.00
2017-10-22T04:19:14.912Z,14.10
2017-10-22T04:21:43.207Z,13.60
2017-10-22T04:24:11.471Z,14.00
2017-10-22T04:26:39.724Z,13.80
2017-10-22T04:29:08.961Z,14.00
2017-10-22T04:31:37.218Z,13.70
2017-10-22T04:34:05.499Z,13.80
2017-10-22T04:36:33.772Z,13.90
2017-10-22T04:39:02.109Z,13.70
2017-10-22T04:41:31.103Z,13.70
2017-10-22T04:43:59.371Z,13.50
2017-10-22T04:46:28.421Z,13.80
2017-10-22T04:48:56.662Z,13.70
2017-10-22T04:51:24.949Z,13.70
2017-10-22T04:53:53.209Z,13.70
2017-10-22T04:56:22.208Z,13.30
2017-10-22T04:58:53.921Z,13.40
2017-10-22T05:01:22.930Z,13.20
2017-10-22T05:03:51.977Z,13.20
2017-10-22T05:06:20.943Z,13.20
2017-10-22T05:08:49.195Z,12.90
2017-10-22T05:11:18.339Z,13.10
2017-10-22T05:13:47.476Z,12.80
2017-10-22T05:16:15.731Z,12.80
2017-10-22T05:18:44.019Z,13.00
2017-10-22T05:21:13.764Z,13.10
2017-10-22T05:23:42.005Z,12.80
2017-10-22T05:26:12.742Z,13.00
2017-10-22T05:28:42.492Z,13.10
2017-10-22T05:31:10.777Z,13.20
2017-10-22T05:33:39.880Z,13.10
2017-10-22T05:36:09.128Z,12.90
2017-10-22T05:38:37.355Z,12.80
2017-10-22T05:41:06.600Z,12.80
2017-10-22T05:43:36.369Z,12.80
2017-10-22T05:46:04.685Z,13.00
2017-10-22T05:48:32.946Z,12.80
2017-10-22T05:51:01.222Z,12.80
2017-10-22T05:53:29.467Z,12.90
2017-10-22T05:55:57.760Z,13.10
2017-10-22T05:58:26.008Z,13.00
2017-10-22T06:00:54.292Z,12.80
2017-10-22T06:03:22.549Z,12.70
2017-10-22T06:05:51.584Z,12.90
2017-10-22T06:08:19.867Z,12.70
2017-10-22T06:10:48.161Z,12.80
2017-10-22T06:13:17.944Z,12.80
2017-10-22T06:15:47.982Z,12.90
2017-10-22T06:18:16.236Z,12.60
2017-10-22T06:20:44.512Z,12.90
2017-10-22T06:23:12.872Z,13.00
2017-10-22T06:25:41.160Z,12.90
2017-10-22T06:28:09.435Z,12.90
2017-10-22T06:30:37.714Z,12.80
2017-10-22T06:33:05.972Z,12.80
2017-10-22T06:35:34.962Z,12.80
2017-10-22T06:38:03.683Z,13.00
2017-10-22T06:40:32.278Z,12.90
2017-10-22T06:43:02.080Z,12.70
2017-10-22T06:45:31.108Z,12.80
2017-10-22T06:48:00.435Z,13.10
2017-10-22T06:50:29.526Z,13.00
2017-10-22T06:52:58.780Z,12.80
2017-10-22T06:55:28.793Z,12.60
2017-10-22T06:57:59.874Z,12.70
2017-10-22T07:00:28.269Z,12.60
2017-10-22T07:02:56.560Z,12.90
2017-10-22T07:05:24.863Z,12.90
2017-10-22T07:07:53.962Z,12.70
2017-10-22T07:10:22.240Z,12.70
2017-10-22T07:12:50.540Z,12.90
2017-10-22T07:15:18.922Z,12.90
2017-10-22T07:17:47.172Z,12.80
2017-10-22T07:20:16.233Z,13.20
2017-10-22T07:22:44.525Z,13.10
2017-10-22T07:25:12.926Z,13.00
2017-10-22T07:27:41.330Z,13.30
2017-10-22T07:30:09.664Z,13.30
2017-10-22T07:32:38.779Z,13.00
2017-10-22T07:35:07.156Z,13.10
2017-10-22T07:37:36.370Z,13.00
2017-10-22T07:40:05.659Z,13.10
2017-10-22T07:42:34.635Z,13.20
2017-10-22T07:45:03.764Z,12.70
2017-10-22T07:47:32.943Z,12.80
2017-10-22T07:50:01.230Z,12.70
2017-10-22T07:52:30.505Z,12.90
2017-10-22T07:54:58.777Z,13.20
2017-10-22T07:57:27.067Z,13.10
2017-10-22T07:59:55.329Z,12.80
2017-10-22T08:02:23.645Z,13.10
2017-10-22T08:04:53.447Z,13.20
2017-10-22T08:07:23.265Z,13.00
2017-10-22T08:09:51.569Z,13.10
2017-10-22T08:12:20.653Z,13.00
2017-10-22T08:14:50.471Z,13.10
2017-10-22T08:17:19.705Z,12.80
2017-10-22T08:19:48.001Z,13.30
2017-10-22T08:22:16.401Z,13.00
2017-10-22T08:24:46.445Z,13.10
2017-10-22T08:27:15.480Z,13.10
2017-10-22T08:29:43.804Z,13.00
2017-10-22T08:32:12.929Z,13.10
2017-10-22T08:34:43.018Z,12.90
2017-10-22T08:37:12.937Z,12.90
2017-10-22T08:39:41.240Z,12.90
2017-10-22T08:42:10.292Z,13.20
2017-10-22T08:44:39.823Z,13.30
2017-10-22T08:47:09.015Z,13.10
2017-10-22T08:49:37.352Z,12.90
2017-10-22T08:52:05.695Z,12.90
2017-10-22T08:54:35.015Z,13.10
2017-10-22T08:57:03.325Z,13.00
2017-10-22T09:02:06.737Z,13.20
2017-10-22T09:04:35.098Z,13.20
2017-10-22T09:07:03.480Z,13.20
2017-10-22T09:09:33.341Z,13.30
2017-10-22T09:12:01.716Z,13.40
2017-10-22T09:14:30.893Z,13.40
2017-10-22T09:17:00.128Z,13.30
2017-10-22T09:19:28.510Z,13.50
2017-10-22T09:21:56.973Z,13.40
2017-10-22T09:24:27.946Z,13.50
2017-10-22T09:26:58.743Z,13.40
2017-10-22T09:29:27.960Z,13.10
2017-10-22T09:31:56.619Z,13.40
2017-10-22T09:34:25.415Z,13.30
2017-10-22T09:36:53.830Z,13.40
2017-10-22T09:39:23.803Z,13.60
2017-10-22T09:41:52.596Z,13.60
2017-10-22T09:44:21.930Z,13.50
2017-10-22T09:46:50.823Z,13.30
2017-10-22T09:49:19.552Z,13.30
2017-10-22T09:51:47.845Z,13.50
2017-10-22T09:54:16.409Z,13.30
2017-10-22T09:56:47.185Z,13.40
2017-10-22T09:59:16.357Z,13.50
2017-10-22T10:01:44.813Z,13.40
2017-10-22T10:04:13.520Z,13.30
2017-10-22T10:06:42.590Z,13.40
2017-10-22T10:09:13.885Z,13.50
2017-10-22T10:11:46.952Z,13.40
2017-10-22T10:14:18.427Z,13.50
2017-10-22T10:16:49.282Z,13.60
2017-10-22T10:19:20.238Z,13.60
2017-10-22T10:21:51.103Z,13.40
2017-10-22T10:24:20.994Z,13.70
2017-10-22T10:26:50.352Z,13.50
2017-10-22T10:29:23.571Z,13.30
2017-10-22T10:31:52.053Z,13.60
2017-10-22T10:34:20.419Z,13.60
2017-10-22T10:36:49.184Z,13.60
2017-10-22T10:39:17.484Z,13.50
2017-10-22T10:41:45.994Z,13.60
2017-10-22T10:44:14.424Z,13.70
2017-10-22T10:46:43.712Z,13.30
2017-10-22T10:49:12.178Z,13.50
2017-10-22T10:51:40.511Z,13.20
2017-10-22T10:54:08.917Z,13.20
2017-10-22T10:56:37.218Z,13.70
2017-10-22T10:59:05.742Z,13.50
2017-10-22T11:01:34.070Z,13.70
2017-10-22T11:04:02.458Z,13.80
2017-10-22T11:06:31.678Z,13.50
2017-10-22T11:09:01.565Z,13.60
2017-10-22T11:11:30.043Z,13.70
2017-10-22T11:13:58.580Z,13.40
2017-10-22T11:16:27.139Z,13.40
2017-10-22T11:18:55.674Z,13.70
2017-10-22T11:21:24.932Z,13.40
2017-10-22T11:23:54.888Z,13.80
2017-10-22T11:26:23.226Z,13.60
2017-10-22T11:28:52.308Z,13.50
2017-10-22T11:31:20.707Z,13.80
2017-10-22T11:33:49.886Z,13.70
2017-10-22T11:36:19.197Z,13.70
2017-10-22T11:38:48.414Z,13.80
2017-10-22T11:41:19.790Z,13.80
2017-10-22T11:43:49.037Z,13.80
2017-10-22T11:46:17.920Z,14.00
2017-10-22T11:48:46.289Z,13.60
2017-10-22T11:51:14.753Z,14.10
2017-10-22T11:53:44.627Z,14.00
2017-10-22T11:56:14.787Z,13.90
2017-10-22T11:58:43.298Z,13.70
2017-10-22T12:01:12.623Z,13.70
2017-10-22T12:03:44.063Z,13.80
2017-10-22T12:06:16.696Z,13.70
2017-10-22T12:08:45.133Z,13.70
2017-10-22T12:11:15.459Z,14.10
2017-10-22T12:13:44.132Z,14.00
2017-10-22T12:16:12.488Z,14.00
2017-10-22T12:18:42.485Z,14.00
2017-10-22T12:21:12.636Z,13.90
2017-10-22T12:23:41.412Z,14.00
2017-10-22T12:26:11.342Z,13.90
2017-10-22T12:28:40.553Z,13.90
2017-10-22T12:31:09.676Z,14.00
2017-10-22T12:33:39.859Z,14.20
2017-10-22T12:36:09.159Z,14.10
2017-10-22T12:38:38.348Z,14.40
2017-10-22T12:41:06.999Z,14.20
2017-10-22T12:43:36.543Z,14.50
2017-10-22T12:46:05.774Z,14.20
2017-10-22T12:48:34.757Z,14.20
2017-10-22T12:51:03.998Z,14.40
2017-10-22T12:53:34.913Z,14.10
2017-10-22T12:56:04.278Z,14.10
2017-10-22T12:58:36.562Z,14.50
2017-10-22T13:01:09.309Z,14.20
2017-10-22T13:03:38.891Z,14.20
2017-10-22T13:06:07.446Z,14.30
2017-10-22T13:08:36.764Z,14.20
2017-10-22T13:11:05.262Z,14.30
2017-10-22T13:13:34.735Z,14.10
2017-10-22T13:16:04.596Z,14.30
2017-10-22T13:18:33.554Z,14.50
2017-10-22T13:21:02.389Z,14.40
2017-10-22T13:23:32.592Z,14.20
2017-10-22T13:26:01.066Z,14.50
2017-10-22T13:28:31.496Z,14.20
2017-10-22T13:31:00.047Z,14.40
2017-10-22T13:36:05.086Z,14.10
2017-10-22T13:38:33.619Z,14.30
2017-10-22T13:41:03.010Z,14.40
2017-10-22T13:43:32.468Z,14.40
2017-10-22T13:46:00.934Z,14.40
2017-10-22T13:48:31.104Z,14.40
2017-10-22T13:51:00.681Z,14.10
2017-10-22T13:53:30.912Z,14.20
2017-10-22T13:55:59.270Z,14.10
2017-10-22T13:58:29.261Z,14.10
2017-10-22T14:00:58.536Z,13.90
2017-10-22T14:03:26.963Z,14.30
2017-10-22T14:05:56.306Z,14.30
2017-10-22T14:08:25.527Z,14.00
2017-10-22T14:10:54.595Z,14.30
2017-10-22T14:13:23.015Z,14.10
2017-10-22T14:18:26.384Z,14.10
2017-10-22T14:20:59.049Z,14.10
2017-10-22T14:23:28.245Z,14.10
2017-10-22T14:25:56.738Z,14.10
2017-10-22T14:28:26.627Z,14.10
2017-10-22T14:30:56.600Z,14.30
2017-10-22T14:33:26.788Z,14.20
2017-10-22T14:35:55.901Z,14.50
2017-10-22T14:38:25.980Z,14.50
2017-10-22T14:41:00.206Z,14.50
2017-10-22T14:43:30.279Z,14.50
2017-10-22T14:46:01.219Z,14.40
2017-10-22T14:48:30.585Z,14.50
2017-10-22T14:51:00.905Z,14.50
2017-10-22T14:53:29.276Z,14.50
2017-10-22T14:56:04.872Z,14.40
2017-10-22T14:58:34.035Z,14.60
2017-10-22T15:01:02.562Z,14.40
2017-10-22T15:03:32.375Z,14.50
2017-10-22T15:06:01.672Z,14.30
2017-10-22T15:08:31.727Z,14.60
2017-10-22T15:11:00.502Z,14.10
2017-10-22T15:13:28.973Z,14.10
2017-10-22T15:15:57.507Z,14.30
2017-10-22T15:18:27.797Z,14.20
2017-10-22T15:20:58.214Z,14.50
2017-10-22T15:23:26.654Z,14.20
2017-10-22T15:26:02.897Z,14.70
2017-10-22T15:28:32.328Z,14.40
2017-10-22T15:31:02.084Z,14.60
2017-10-22T15:33:32.654Z,14.40
2017-10-22T15:36:01.978Z,14.40
2017-10-22T15:38:32.331Z,14.20
2017-10-22T15:41:02.530Z,14.20
2017-10-22T15:43:31.764Z,14.30
2017-10-22T15:46:01.853Z,14.10
2017-10-22T15:48:30.255Z,14.30
2017-10-22T15:51:00.522Z,14.10
2017-10-22T15:53:31.712Z,14.40
2017-10-22T15:56:01.052Z,14.40
2017-10-22T15:58:38.032Z,14.10
2017-10-22T16:01:09.122Z,14.30
2017-10-22T16:03:38.561Z,14.50
2017-10-22T16:06:08.054Z,14.20
2017-10-22T16:08:37.461Z,14.50
2017-10-22T16:11:12.961Z,14.20
2017-10-22T16:13:44.113Z,14.20
2017-10-22T16:16:14.224Z,14.20
2017-10-22T16:18:43.952Z,14.20
2017-10-22T16:21:15.557Z,14.10
2017-10-22T16:23:47.212Z,14.20
2017-10-22T16:26:18.493Z,14.00
2017-10-22T16:28:48.596Z,14.20
2017-10-22T16:31:23.886Z,14.10
2017-10-22T16:33:54.728Z,14.10
2017-10-22T16:36:25.125Z,14.00
2017-10-22T16:38:55.407Z,14.30
2017-10-22T16:41:24.037Z,13.80
2017-10-22T16:43:54.361Z,14.10
2017-10-22T16:46:22.908Z,13.80
2017-10-22T16:48:52.327Z,13.70
2017-10-22T16:51:21.918Z,13.90
2017-10-22T16:53:51.975Z,14.00
2017-10-22T16:56:21.062Z,14.00
2017-10-22T16:58:51.536Z,14.00
2017-10-22T17:01:21.130Z,14.20
2017-10-22T17:03:50.553Z,13.90
2017-10-22T17:06:19.058Z,14.10
2017-10-22T17:08:47.723Z,13.90
2017-10-22T17:11:23.939Z,14.20
2017-10-22T17:13:55.937Z,14.10
2017-10-22T17:16:25.580Z,14.10
2017-10-22T17:18:55.150Z,14.10
2017-10-22T17:21:27.421Z,13.80
2017-10-22T17:23:57.885Z,14.10
2017-10-22T17:26:29.100Z,14.20
2017-10-22T17:29:01.128Z,14.20
2017-10-22T17:31:37.020Z,14.10
2017-10-22T17:34:11.467Z,14.10
2017-10-22T17:36:45.250Z,13.90
2017-10-22T17:39:18.280Z,14.00
2017-10-22T17:41:51.403Z,14.10
2017-10-22T17:44:30.545Z,13.80
2017-10-22T17:47:09.882Z,14.10
2017-10-22T17:49:47.071Z,14.10
2017-10-22T17:52:18.210Z,13.70
2017-10-22T17:54:48.215Z,13.80
2017-10-22T17:57:18.142Z,13.60
2017-10-22T17:59:47.750Z,13.70
2017-10-22T18:02:17.173Z,13.80
2017-10-22T18:04:48.104Z,13.80
2017-10-22T18:07:17.558Z,13.80
2017-10-22T18:09:47.353Z,13.90
2017-10-22T18:12:17.631Z,13.60
2017-10-22T18:14:50.976Z,13.60
2017-10-22T18:17:20.347Z,13.70
2017-10-22T18:19:54.902Z,13.70
2017-10-22T18:22:24.372Z,13.80
2017-10-22T18:24:53.968Z,13.70
2017-10-22T18:27:22.987Z,13.80
2017-10-22T18:29:56.125Z,13.60
2017-10-22T18:32:27.104Z,13.40
2017-10-22T18:34:57.466Z,13.60
2017-10-22T18:37:29.674Z,13.80
2017-10-22T18:39:59.620Z,13.70
2017-10-22T18:42:28.487Z,13.50
2017-10-22T18:44:59.449Z,13.80
2017-10-22T18:47:29.215Z,13.90
2017-10-22T18:49:58.769Z,13.80
2017-10-22T18:52:33.472Z,13.80
2017-10-22T18:55:06.310Z,13.50
2017-10-22T18:57:36.908Z,13.70
2017-10-22T19:00:07.082Z,13.40
2017-10-22T19:02:39.000Z,13.60
2017-10-22T19:05:17.031Z,13.40
2017-10-22T19:07:50.396Z,13.60
2017-10-22T19:10:25.370Z,13.50
2017-10-22T19:13:01.127Z,13.60
2017-10-22T19:15:36.368Z,13.70
2017-10-22T19:18:09.374Z,13.60
2017-10-22T19:20:43.157Z,13.80
2017-10-22T19:23:17.076Z,13.90
2017-10-22T19:25:48.162Z,13.80
2017-10-22T19:28:17.167Z,13.70
2017-10-22T19:30:47.468Z,13.80
2017-10-22T19:33:19.019Z,13.90
2017-10-22T19:35:50.985Z,13.50
2017-10-22T19:38:29.272Z,13.80
2017-10-22T19:40:59.911Z,13.60
2017-10-22T19:43:32.152Z,13.80
2017-10-22T19:46:02.927Z,13.80
2017-10-22T19:48:35.491Z,13.80
2017-10-22T19:51:05.065Z,13.70
2017-10-22T19:53:35.497Z,13.90
2017-10-22T19:56:04.815Z,13.70
2017-10-22T19:58:34.347Z,13.60
2017-10-22T20:01:03.949Z,13.50
2017-10-22T20:03:33.362Z,13.70
2017-10-22T20:06:02.288Z,13.60
2017-10-22T20:08:32.016Z,13.70
2017-10-22T20:11:04.426Z,13.60
2017-10-22T20:13:35.642Z,13.80
2017-10-22T20:16:05.354Z,13.70
2017-10-22T20:18:39.657Z,13.60
2017-10-22T20:21:11.101Z,13.80
2017-10-22T20:23:40.042Z,13.70
2017-10-22T20:26:10.087Z,13.50
2017-10-22T20:28:42.795Z,13.50
2017-10-22T20:31:12.066Z,13.30
2017-10-22T20:33:41.369Z,13.60
2017-10-22T20:36:10.021Z,13.40
2017-10-22T20:38:40.355Z,13.40
2017-10-22T20:41:12.594Z,13.70
2017-10-22T20:43:42.082Z,13.50
2017-10-22T20:46:21.108Z,13.30
2017-10-22T20:48:49.745Z,13.20
2017-10-22T20:51:18.528Z,13.40
2017-10-22T20:53:49.194Z,13.50
2017-10-22T20:56:19.335Z,13.70
2017-10-22T20:58:47.869Z,13.80
2017-10-22T21:01:16.745Z,13.80
2017-10-22T21:03:47.258Z,13.40
2017-10-22T21:06:18.908Z,13.60
2017-10-22T21:08:51.717Z,13.90
2017-10-22T21:11:27.933Z,13.70
2017-10-22T21:13:56.286Z,13.60
2017-10-22T21:16:25.780Z,13.50
2017-10-22T21:18:54.550Z,13.60
2017-10-22T21:21:24.214Z,13.30
2017-10-22T21:23:53.705Z,13.30
2017-10-22T21:26:25.279Z,13.50
2017-10-22T21:28:55.565Z,13.50
2017-10-22T21:31:24.142Z,13.60
2017-10-22T21:33:53.632Z,13.70
2017-10-22T21:36:22.994Z,13.80
2017-10-22T21:38:52.761Z,13.50
2017-10-22T21:41:26.370Z,13.70
2017-10-22T21:43:54.932Z,13.60
2017-10-22T21:46:23.430Z,13.70
2017-10-22T21:48:51.893Z,13.70
2017-10-22T21:51:21.194Z,13.70
2017-10-22T21:53:54.675Z,13.50
2017-10-22T21:56:30.048Z,13.60
2017-10-22T21:59:00.260Z,13.90
2017-10-22T22:01:30.512Z,13.70
2017-10-22T22:03:59.759Z,13.70
2017-10-22T22:06:29.189Z,13.80
2017-10-22T22:08:57.574Z,13.60
2017-10-22T22:11:27.160Z,13.70
2017-10-22T22:13:56.917Z,13.50
2017-10-22T22:16:25.367Z,13.40
2017-10-22T22:18:55.898Z,13.50
2017-10-22T22:21:25.969Z,13.50
2017-10-22T22:23:54.516Z,13.60
2017-10-22T22:26:23.873Z,13.60
2017-10-22T22:28:53.026Z,13.50
2017-10-22T22:31:28.632Z,13.60
2017-10-22T22:33:59.077Z,13.60
2017-10-22T22:36:28.319Z,13.40
2017-10-22T22:38:58.689Z,13.70
2017-10-22T22:41:28.833Z,13.30
2017-10-22T22:43:58.773Z,13.30
2017-10-22T22:46:27.126Z,13.10
2017-10-22T22:48:55.490Z,13.40
2017-10-22T22:51:26.519Z,13.20
2017-10-22T22:53:55.760Z,13.10
2017-10-22T22:56:26.153Z,13.50
2017-10-22T22:58:56.526Z,13.40
2017-10-22T23:01:25.639Z,13.20
2017-10-22T23:03:57.805Z,13.40
2017-10-22T23:06:27.117Z,13.20
2017-10-22T23:08:57.190Z,13.20
2017-10-22T23:11:26.358Z,13.40
2017-10-22T23:13:55.675Z,13.20
2017-10-22T23:16:24.985Z,13.20
2017-10-22T23:18:53.302Z,13.20
2017-10-22T23:21:21.697Z,13.10
2017-10-22T23:23:49.994Z,12.90
2017-10-22T23:26:23.718Z,13.00
2017-10-22T23:28:52.043Z,13.40
2017-10-22T23:31:22.492Z,13.30
2017-10-22T23:33:51.830Z,13.10
2017-10-22T23:36:21.138Z,13.10
2017-10-22T23:38:54.656Z,13.00
2017-10-22T23:41:23.931Z,13.30
2017-10-22T23:43:54.210Z,13.10
2017-10-22T23:46:24.481Z,12.90
2017-10-22T23:48:53.862Z,13.00
2017-10-22T23:51:22.294Z,13.10
2017-10-22T23:53:52.342Z,13.20
2017-10-22T23:56:23.298Z,13.30
2017-10-22T23:58:53.605Z,13.00
